createdAt,value
2019-03-10T00:00:44.070Z,0.00
2019-03-10T00:01:43.985Z,0.00
2019-03-10T00:02:43.901Z,0.00
2019-03-10T00:03:43.816Z,0.00
2019-03-10T00:04:43.737Z,0.00
2019-03-10T00:05:43.660Z,0.00
2019-03-10T00:06:43.574Z,0.00
2019-03-10T00:07:43.491Z,0.00
2019-03-10T00:08:43.408Z,0.00
2019-03-10T00:09:43.324Z,0.00
2019-03-10T00:10:43.244Z,0.00
2019-03-10T00:11:43.159Z,0.00
2019-03-10T00:12:43.078Z,0.00
2019-03-10T00:13:42.996Z,0.00
2019-03-10T00:14:42.912Z,0.00
2019-03-10T00:15:42.835Z,0.00
2019-03-10T00:16:42.754Z,0.00
2019-03-10T00:17:42.665Z,0.00
2019-03-10T00:18:42.584Z,0.00
2019-03-10T00:19:42.500Z,0.00
2019-03-10T00:20:42.419Z,0.00
2019-03-10T00:21:42.344Z,0.00
2019-03-10T00:22:42.256Z,0.00
2019-03-10T00:23:42.173Z,0.00
2019-03-10T00:24:42.090Z,0.00
2019-03-10T00:25:42.003Z,0.00
2019-03-10T00:26:41.926Z,0.00
2019-03-10T00:27:41.839Z,0.00
2019-03-10T00:28:41.760Z,0.00
2019-03-10T00:29:41.674Z,0.00
2019-03-10T00:30:41.598Z,0.00
2019-03-10T00:31:41.514Z,0.00
2019-03-10T00:32:41.443Z,0.00
2019-03-10T00:33:41.345Z,0.00
2019-03-10T00:34:41.328Z,0.00
2019-03-10T00:35:41.186Z,0.00
2019-03-10T00:36:41.101Z,0.00
2019-03-10T00:37:41.022Z,0.00
2019-03-10T00:38:40.939Z,0.00
2019-03-10T00:39:40.856Z,0.00
2019-03-10T00:40:40.773Z,0.00
2019-03-10T00:41:40.693Z,0.00
2019-03-10T00:42:40.605Z,0.00
2019-03-10T00:43:40.526Z,0.00
2019-03-10T00:44:40.438Z,0.00
2019-03-10T00:45:40.363Z,0.00
2019-03-10T00:46:40.285Z,0.00
2019-03-10T00:47:40.195Z,0.00
2019-03-10T00:48:40.117Z,0.00
2019-03-10T00:49:40.032Z,0.00
2019-03-10T00:50:39.950Z,0.00
2019-03-10T00:51:39.868Z,0.00
2019-03-10T00:52:39.788Z,0.00
2019-03-10T00:53:39.702Z,0.00
2019-03-10T00:54:39.621Z,0.00
2019-03-10T00:55:39.536Z,0.00
2019-03-10T00:56:39.453Z,0.00
2019-03-10T00:57:39.372Z,0.00
2019-03-10T00:58:39.289Z,0.00
2019-03-10T00:59:39.204Z,0.00
2019-03-10T01:00:39.124Z,0.00
2019-03-10T01:01:39.045Z,0.00
2019-03-10T01:02:38.956Z,0.00
2019-03-10T01:03:38.878Z,0.00
2019-03-10T01:04:38.793Z,0.00
2019-03-10T01:05:38.708Z,0.00
2019-03-10T01:06:38.636Z,0.00
2019-03-10T01:07:38.552Z,0.00
2019-03-10T01:08:38.461Z,0.00
2019-03-10T01:09:38.384Z,0.00
2019-03-10T01:10:38.297Z,0.00
2019-03-10T01:11:38.217Z,0.00
2019-03-10T01:12:38.135Z,0.00
2019-03-10T01:13:38.054Z,0.00
2019-03-10T01:14:37.973Z,0.00
2019-03-10T01:15:37.894Z,0.00
2019-03-10T01:16:37.806Z,0.00
2019-03-10T01:17:37.724Z,0.00
2019-03-10T01:18:37.641Z,0.00
2019-03-10T01:19:37.559Z,0.00
2019-03-10T01:20:37.479Z,0.00
2019-03-10T01:21:37.390Z,0.00
2019-03-10T01:22:37.311Z,0.00
2019-03-10T01:23:37.228Z,0.00
2019-03-10T01:24:37.143Z,0.00
2019-03-10T01:25:37.064Z,0.00
2019-03-10T01:26:36.980Z,0.00
2019-03-10T01:27:36.896Z,0.00
2019-03-10T01:28:36.820Z,0.00
2019-03-10T01:29:36.731Z,0.00
2019-03-10T01:30:36.655Z,0.00
2019-03-10T01:31:36.570Z,0.00
2019-03-10T01:32:36.490Z,0.00
2019-03-10T01:33:36.406Z,0.00
2019-03-10T01:34:36.318Z,0.00
2019-03-10T01:35:36.240Z,0.00
2019-03-10T01:36:36.159Z,0.00
2019-03-10T01:37:36.077Z,0.00
2019-03-10T01:38:35.990Z,0.00
2019-03-10T01:39:35.908Z,0.00
2019-03-10T01:40:35.827Z,0.00
2019-03-10T01:41:35.748Z,0.00
2019-03-10T01:42:35.663Z,0.00
2019-03-10T01:43:35.583Z,0.00
2019-03-10T01:44:35.493Z,0.00
2019-03-10T01:45:35.409Z,0.00
2019-03-10T01:46:35.332Z,0.00
2019-03-10T01:47:35.251Z,0.00
2019-03-10T01:48:35.169Z,0.00
2019-03-10T01:49:35.086Z,0.00
2019-03-10T01:50:35.006Z,0.00
2019-03-10T01:51:34.921Z,0.00
2019-03-10T01:52:34.837Z,0.00
2019-03-10T01:53:34.756Z,0.00
2019-03-10T01:54:34.673Z,0.00
2019-03-10T01:55:34.591Z,0.00
2019-03-10T01:56:34.505Z,0.00
2019-03-10T01:57:34.426Z,0.00
2019-03-10T01:58:34.338Z,0.00
2019-03-10T01:59:34.274Z,0.00
2019-03-10T02:00:34.173Z,0.00
2019-03-10T02:01:34.098Z,0.00
2019-03-10T02:02:34.010Z,0.00
2019-03-10T02:03:33.926Z,0.00
2019-03-10T02:04:33.849Z,0.00
2019-03-10T02:05:33.763Z,0.00
2019-03-10T02:06:33.684Z,0.00
2019-03-10T02:07:33.607Z,0.00
2019-03-10T02:08:33.517Z,0.00
2019-03-10T02:09:33.432Z,0.00
2019-03-10T02:10:33.358Z,0.00
2019-03-10T02:11:33.271Z,0.00
2019-03-10T02:12:33.191Z,0.00
2019-03-10T02:13:33.105Z,0.00
2019-03-10T02:14:33.026Z,0.00
2019-03-10T02:15:32.943Z,0.00
2019-03-10T02:16:32.856Z,0.00
2019-03-10T02:17:32.773Z,0.00
2019-03-10T02:18:32.694Z,0.00
2019-03-10T02:19:32.612Z,0.00
2019-03-10T02:20:32.532Z,0.00
2019-03-10T02:21:32.493Z,0.00
2019-03-10T02:22:32.363Z,0.00
2019-03-10T02:23:32.279Z,0.00
2019-03-10T02:24:32.198Z,0.00
2019-03-10T02:25:32.120Z,0.00
2019-03-10T02:26:32.032Z,0.00
2019-03-10T02:27:31.952Z,0.00
2019-03-10T02:28:31.869Z,0.00
2019-03-10T02:29:31.785Z,0.00
2019-03-10T02:30:31.701Z,0.00
2019-03-10T02:31:31.621Z,0.00
2019-03-10T02:32:31.552Z,0.00
2019-03-10T02:33:31.457Z,0.00
2019-03-10T02:34:31.389Z,0.00
2019-03-10T02:35:31.291Z,0.00
2019-03-10T02:36:31.209Z,0.00
2019-03-10T02:37:31.128Z,0.00
2019-03-10T02:38:31.044Z,0.00
2019-03-10T02:39:30.960Z,0.00
2019-03-10T02:40:30.874Z,0.00
2019-03-10T02:41:30.795Z,0.00
2019-03-10T02:42:30.715Z,0.00
2019-03-10T02:43:30.630Z,0.00
2019-03-10T02:44:30.547Z,0.00
2019-03-10T02:45:30.482Z,0.00
2019-03-10T02:46:30.376Z,0.00
2019-03-10T02:47:30.303Z,0.00
2019-03-10T02:48:30.211Z,0.00
2019-03-10T02:49:30.134Z,0.00
2019-03-10T02:50:30.049Z,0.00
2019-03-10T02:51:29.972Z,0.00
2019-03-10T02:52:29.888Z,0.00
2019-03-10T02:53:29.809Z,0.00
2019-03-10T02:54:29.718Z,0.00
2019-03-10T02:55:29.636Z,0.00
2019-03-10T02:56:29.562Z,0.00
2019-03-10T02:57:29.471Z,0.00
2019-03-10T02:58:29.382Z,0.00
2019-03-10T02:59:29.306Z,0.00
2019-03-10T03:00:29.221Z,0.00
2019-03-10T03:01:29.145Z,0.00
2019-03-10T03:02:29.059Z,0.00
2019-03-10T03:03:28.979Z,0.00
2019-03-10T03:04:28.893Z,0.00
2019-03-10T03:05:28.812Z,0.00
2019-03-10T03:06:28.722Z,0.00
2019-03-10T03:07:28.645Z,0.00
2019-03-10T03:08:28.571Z,0.00
2019-03-10T03:09:28.482Z,0.00
2019-03-10T03:10:28.396Z,0.00
2019-03-10T03:11:28.319Z,0.00
2019-03-10T03:12:28.230Z,0.00
2019-03-10T03:13:28.150Z,0.00
2019-03-10T03:14:28.073Z,0.00
2019-03-10T03:15:28.006Z,0.00
2019-03-10T03:16:27.899Z,0.00
2019-03-10T03:17:27.817Z,0.00
2019-03-10T03:18:27.748Z,0.00
2019-03-10T03:19:27.652Z,0.00
2019-03-10T03:20:27.567Z,0.00
2019-03-10T03:21:41.731Z,0.00
2019-03-10T03:22:27.409Z,0.00
2019-03-10T03:23:27.333Z,0.00
2019-03-10T03:24:27.240Z,0.00
2019-03-10T03:25:27.179Z,0.00
2019-03-10T03:26:27.077Z,0.00
2019-03-10T03:27:26.990Z,0.00
2019-03-10T03:28:26.908Z,0.00
2019-03-10T03:29:26.828Z,0.00
2019-03-10T03:30:26.746Z,0.00
2019-03-10T03:31:26.663Z,0.00
2019-03-10T03:32:26.589Z,0.00
2019-03-10T03:33:26.560Z,0.00
2019-03-10T03:34:26.414Z,0.00
2019-03-10T03:35:26.343Z,0.00
2019-03-10T03:36:26.250Z,0.00
2019-03-10T03:37:26.171Z,0.00
2019-03-10T03:38:26.082Z,0.00
2019-03-10T03:39:26.002Z,0.00
2019-03-10T03:40:25.920Z,0.00
2019-03-10T03:41:25.841Z,0.00
2019-03-10T03:42:25.753Z,0.00
2019-03-10T03:43:25.667Z,0.00
2019-03-10T03:44:25.586Z,0.00
2019-03-10T03:45:25.512Z,0.00
2019-03-10T03:46:25.425Z,0.00
2019-03-10T03:47:25.340Z,0.00
2019-03-10T03:48:25.262Z,0.00
2019-03-10T03:49:25.199Z,0.00
2019-03-10T03:50:25.091Z,0.00
2019-03-10T03:51:25.011Z,0.00
2019-03-10T03:52:24.935Z,0.00
2019-03-10T03:53:24.846Z,0.00
2019-03-10T03:54:24.764Z,0.00
2019-03-10T03:55:24.686Z,0.00
2019-03-10T03:56:24.613Z,0.00
2019-03-10T03:57:24.521Z,0.00
2019-03-10T03:58:24.439Z,0.00
2019-03-10T03:59:24.356Z,0.00
2019-03-10T04:00:24.269Z,0.00
2019-03-10T04:01:24.194Z,0.00
2019-03-10T04:02:24.112Z,0.00
2019-03-10T04:03:24.026Z,0.00
2019-03-10T04:04:23.978Z,0.00
2019-03-10T04:05:23.863Z,0.00
2019-03-10T04:06:23.778Z,0.00
2019-03-10T04:07:23.699Z,0.00
2019-03-10T04:08:23.611Z,0.00
2019-03-10T04:09:23.531Z,0.00
2019-03-10T04:10:23.442Z,0.00
2019-03-10T04:11:23.365Z,0.00
2019-03-10T04:12:23.292Z,0.00
2019-03-10T04:13:23.208Z,0.00
2019-03-10T04:14:23.120Z,0.00
2019-03-10T04:15:23.038Z,0.00
2019-03-10T04:16:22.968Z,0.00
2019-03-10T04:17:22.877Z,0.00
2019-03-10T04:18:22.790Z,0.00
2019-03-10T04:19:22.708Z,0.00
2019-03-10T04:20:22.706Z,0.00
2019-03-10T04:21:22.548Z,0.00
2019-03-10T04:22:22.466Z,0.00
2019-03-10T04:23:22.379Z,0.00
2019-03-10T04:24:22.297Z,0.00
2019-03-10T04:25:22.237Z,0.00
2019-03-10T04:26:22.128Z,0.00
2019-03-10T04:27:22.049Z,0.00
2019-03-10T04:28:21.968Z,0.00
2019-03-10T04:29:21.965Z,0.00
2019-03-10T04:30:21.803Z,0.00
2019-03-10T04:31:21.726Z,0.00
2019-03-10T04:32:21.641Z,0.00
2019-03-10T04:33:21.569Z,0.00
2019-03-10T04:34:21.474Z,0.00
2019-03-10T04:35:21.393Z,0.00
2019-03-10T04:36:21.306Z,0.00
2019-03-10T04:37:21.231Z,0.00
2019-03-10T04:38:21.146Z,0.00
2019-03-10T04:39:21.056Z,0.00
2019-03-10T04:40:20.982Z,0.00
2019-03-10T04:41:20.894Z,0.00
2019-03-10T04:42:20.817Z,0.00
2019-03-10T04:43:20.732Z,0.00
2019-03-10T04:44:20.646Z,0.00
2019-03-10T04:45:20.570Z,0.00
2019-03-10T04:46:20.491Z,0.00
2019-03-10T04:47:20.398Z,0.00
2019-03-10T04:48:20.322Z,0.00
2019-03-10T04:49:20.236Z,0.00
2019-03-10T04:50:20.155Z,0.00
2019-03-10T04:51:20.075Z,0.00
2019-03-10T04:52:19.990Z,0.00
2019-03-10T04:53:19.907Z,0.00
2019-03-10T04:54:19.823Z,0.00
2019-03-10T04:55:19.741Z,0.00
2019-03-10T04:56:19.657Z,0.00
2019-03-10T04:57:19.578Z,0.00
2019-03-10T04:58:19.501Z,0.00
2019-03-10T04:59:19.409Z,0.00
2019-03-10T05:00:19.327Z,0.00
2019-03-10T05:01:19.249Z,0.00
2019-03-10T05:02:19.161Z,0.00
2019-03-10T05:03:19.084Z,0.00
2019-03-10T05:04:19.011Z,0.00
2019-03-10T05:05:18.927Z,0.00
2019-03-10T05:06:18.840Z,0.00
2019-03-10T05:07:18.755Z,0.00
2019-03-10T05:08:18.674Z,0.00
2019-03-10T05:09:18.589Z,0.00
2019-03-10T05:10:18.507Z,0.00
2019-03-10T05:11:18.428Z,0.00
2019-03-10T05:12:18.345Z,0.00
2019-03-10T05:13:18.260Z,0.00
2019-03-10T05:14:18.175Z,0.00
2019-03-10T05:15:18.146Z,0.00
2019-03-10T05:16:18.016Z,0.00
2019-03-10T05:17:17.933Z,0.00
2019-03-10T05:18:17.851Z,0.00
2019-03-10T05:19:17.769Z,0.00
2019-03-10T05:20:17.690Z,4.00
2019-03-10T05:21:17.604Z,4.00
2019-03-10T05:22:17.523Z,4.00
2019-03-10T05:23:17.438Z,0.00
2019-03-10T05:24:17.363Z,4.00
2019-03-10T05:25:17.273Z,4.00
2019-03-10T05:26:17.193Z,4.00
2019-03-10T05:27:17.111Z,8.00
2019-03-10T05:28:17.028Z,8.00
2019-03-10T05:29:16.948Z,8.00
2019-03-10T05:30:16.860Z,16.00
2019-03-10T05:31:16.785Z,16.00
2019-03-10T05:32:16.695Z,20.00
2019-03-10T05:33:16.617Z,24.00
2019-03-10T05:34:16.535Z,24.00
2019-03-10T05:35:16.451Z,24.00
2019-03-10T05:36:16.375Z,32.00
2019-03-10T05:37:16.288Z,36.00
2019-03-10T05:38:16.204Z,36.00
2019-03-10T05:39:16.122Z,44.00
2019-03-10T05:40:16.041Z,40.00
2019-03-10T05:41:15.956Z,40.00
2019-03-10T05:42:15.874Z,36.00
2019-03-10T05:43:15.790Z,40.00
2019-03-10T05:44:15.719Z,40.00
2019-03-10T05:45:15.628Z,44.00
2019-03-10T05:46:15.544Z,44.00
2019-03-10T05:47:15.455Z,40.00
2019-03-10T05:48:15.399Z,44.00
2019-03-10T05:49:15.300Z,44.00
2019-03-10T05:50:15.216Z,44.00
2019-03-10T05:51:15.137Z,44.00
2019-03-10T05:52:15.053Z,44.00
2019-03-10T05:53:14.964Z,44.00
2019-03-10T05:54:14.886Z,48.00
2019-03-10T05:55:14.801Z,56.00
2019-03-10T05:56:14.723Z,64.00
2019-03-10T05:57:14.643Z,68.00
2019-03-10T05:58:14.556Z,72.00
2019-03-10T05:59:14.474Z,76.00
2019-03-10T06:00:14.392Z,76.00
2019-03-10T06:01:14.308Z,72.00
2019-03-10T06:02:14.224Z,68.00
2019-03-10T06:03:14.138Z,64.00
2019-03-10T06:04:14.059Z,64.00
2019-03-10T06:05:13.977Z,56.00
2019-03-10T06:06:13.890Z,60.00
2019-03-10T06:07:13.815Z,68.00
2019-03-10T06:08:13.727Z,76.00
2019-03-10T06:09:13.641Z,84.00
2019-03-10T06:10:13.559Z,92.00
2019-03-10T06:11:13.479Z,100.00
2019-03-10T06:12:13.401Z,112.00
2019-03-10T06:13:13.312Z,124.00
2019-03-10T06:14:13.227Z,128.00
2019-03-10T06:15:13.144Z,132.00
2019-03-10T06:16:13.066Z,128.00
2019-03-10T06:17:12.985Z,128.00
2019-03-10T06:18:14.060Z,132.00
2019-03-10T06:19:12.814Z,132.00
2019-03-10T06:20:12.733Z,140.00
2019-03-10T06:21:12.650Z,144.00
2019-03-10T06:22:12.563Z,144.00
2019-03-10T06:23:12.482Z,148.00
2019-03-10T06:24:12.398Z,152.00
2019-03-10T06:25:12.314Z,164.00
2019-03-10T06:26:12.230Z,176.00
2019-03-10T06:27:12.149Z,192.00
2019-03-10T06:28:12.060Z,208.00
2019-03-10T06:29:11.983Z,216.00
2019-03-10T06:30:11.900Z,220.00
2019-03-10T06:31:11.811Z,220.00
2019-03-10T06:32:11.733Z,228.00
2019-03-10T06:33:11.645Z,232.00
2019-03-10T06:34:11.577Z,232.00
2019-03-10T06:35:11.476Z,236.00
2019-03-10T06:36:11.394Z,248.00
2019-03-10T06:37:11.320Z,256.00
2019-03-10T06:38:11.230Z,264.00
2019-03-10T06:39:11.151Z,268.00
2019-03-10T06:40:11.065Z,276.00
2019-03-10T06:41:10.981Z,284.00
2019-03-10T06:42:10.894Z,292.00
2019-03-10T06:43:10.808Z,304.00
2019-03-10T06:44:10.726Z,316.00
2019-03-10T06:45:10.641Z,336.00
2019-03-10T06:46:10.560Z,356.00
2019-03-10T06:47:10.469Z,392.00
2019-03-10T06:48:10.393Z,424.00
2019-03-10T06:49:10.304Z,448.00
2019-03-10T06:50:12.236Z,480.00
2019-03-10T06:51:10.139Z,504.00
2019-03-10T06:52:10.057Z,520.00
2019-03-10T06:53:09.973Z,556.00
2019-03-10T06:54:09.889Z,580.00
2019-03-10T06:55:09.803Z,616.00
2019-03-10T06:56:09.719Z,640.00
2019-03-10T06:57:09.633Z,644.00
2019-03-10T06:58:09.550Z,636.00
2019-03-10T06:59:09.474Z,644.00
2019-03-10T07:00:09.385Z,644.00
2019-03-10T07:01:09.301Z,640.00
2019-03-10T07:02:09.210Z,636.00
2019-03-10T07:03:09.131Z,652.00
2019-03-10T07:04:09.043Z,660.00
2019-03-10T07:05:08.969Z,656.00
2019-03-10T07:06:08.881Z,660.00
2019-03-10T07:07:08.794Z,672.00
2019-03-10T07:08:08.710Z,672.00
2019-03-10T07:09:08.630Z,664.00
2019-03-10T07:10:08.544Z,640.00
2019-03-10T07:11:08.459Z,604.00
2019-03-10T07:12:08.376Z,600.00
2019-03-10T07:13:08.294Z,608.00
2019-03-10T07:14:08.215Z,632.00
2019-03-10T07:15:08.124Z,652.00
2019-03-10T07:16:08.040Z,664.00
2019-03-10T07:17:07.959Z,684.00
2019-03-10T07:18:07.876Z,704.00
2019-03-10T07:19:07.785Z,740.00
2019-03-10T07:20:07.707Z,772.00
2019-03-10T07:21:07.615Z,832.00
2019-03-10T07:22:07.535Z,892.00
2019-03-10T07:23:07.455Z,948.00
2019-03-10T07:24:07.370Z,992.00
2019-03-10T07:25:07.283Z,1012.00
2019-03-10T07:26:07.206Z,1024.00
2019-03-10T07:27:07.117Z,1020.00
2019-03-10T07:28:07.033Z,988.00
2019-03-10T07:29:06.951Z,936.00
2019-03-10T07:30:06.869Z,928.00
2019-03-10T07:31:06.781Z,916.00
2019-03-10T07:32:08.925Z,948.00
2019-03-10T07:33:06.615Z,952.00
2019-03-10T07:34:06.531Z,944.00
2019-03-10T07:35:06.452Z,992.00
2019-03-10T07:36:06.362Z,984.00
2019-03-10T07:37:06.275Z,956.00
2019-03-10T07:38:06.197Z,968.00
2019-03-10T07:39:06.112Z,920.00
2019-03-10T07:40:06.025Z,920.00
2019-03-10T07:41:05.947Z,912.00
2019-03-10T07:42:05.865Z,872.00
2019-03-10T07:43:05.775Z,796.00
2019-03-10T07:44:05.691Z,800.00
2019-03-10T07:45:05.610Z,784.00
2019-03-10T07:46:05.526Z,764.00
2019-03-10T07:47:05.449Z,788.00
2019-03-10T07:48:05.358Z,824.00
2019-03-10T07:49:05.279Z,816.00
2019-03-10T07:50:05.188Z,836.00
2019-03-10T07:51:05.106Z,804.00
2019-03-10T07:52:05.020Z,788.00
2019-03-10T07:53:04.939Z,784.00
2019-03-10T07:54:04.855Z,848.00
2019-03-10T07:55:04.770Z,928.00
2019-03-10T07:56:04.684Z,1032.00
2019-03-10T07:57:04.608Z,1004.00
2019-03-10T07:58:04.521Z,948.00
2019-03-10T07:59:04.438Z,800.00
2019-03-10T08:00:04.357Z,704.00
2019-03-10T08:01:04.268Z,788.00
2019-03-10T08:02:04.187Z,1024.00
2019-03-10T08:03:04.101Z,1024.00
2019-03-10T08:04:04.024Z,916.00
2019-03-10T08:05:03.930Z,992.00
2019-03-10T08:06:03.858Z,908.00
2019-03-10T08:07:03.771Z,788.00
2019-03-10T08:08:03.682Z,684.00
2019-03-10T08:09:03.598Z,864.00
2019-03-10T08:10:03.522Z,804.00
2019-03-10T08:11:03.435Z,780.00
2019-03-10T08:12:03.353Z,948.00
2019-03-10T08:13:03.293Z,1220.00
2019-03-10T08:14:03.185Z,1080.00
2019-03-10T08:15:03.104Z,976.00
2019-03-10T08:16:03.019Z,852.00
2019-03-10T08:17:02.934Z,852.00
2019-03-10T08:18:02.852Z,888.00
2019-03-10T08:19:02.769Z,1104.00
2019-03-10T08:20:02.683Z,1496.00
2019-03-10T08:21:02.602Z,1500.00
2019-03-10T08:22:02.517Z,1304.00
2019-03-10T08:23:02.467Z,1372.00
2019-03-10T08:24:02.348Z,1252.00
2019-03-10T08:25:02.267Z,1156.00
2019-03-10T08:26:02.182Z,1204.00
2019-03-10T08:27:02.103Z,1168.00
2019-03-10T08:28:02.213Z,1400.00
2019-03-10T08:29:01.933Z,1508.00
2019-03-10T08:30:01.847Z,1688.00
2019-03-10T08:31:01.757Z,1760.00
2019-03-10T08:32:01.684Z,1724.00
2019-03-10T08:33:01.602Z,1752.00
2019-03-10T08:34:01.519Z,1884.00
2019-03-10T08:35:01.453Z,2020.00
2019-03-10T08:36:01.347Z,1992.00
2019-03-10T08:37:01.265Z,1900.00
2019-03-10T08:38:01.179Z,1956.00
2019-03-10T08:39:01.094Z,2116.00
2019-03-10T08:40:01.015Z,1956.00
2019-03-10T08:41:00.933Z,1936.00
2019-03-10T08:42:00.849Z,1848.00
2019-03-10T08:43:00.765Z,1816.00
2019-03-10T08:44:00.716Z,1680.00
2019-03-10T08:45:00.598Z,1764.00
2019-03-10T08:46:00.515Z,1840.00
2019-03-10T08:47:00.437Z,1488.00
2019-03-10T08:48:00.342Z,1152.00
2019-03-10T08:49:00.266Z,1380.00
2019-03-10T08:50:00.289Z,1456.00
2019-03-10T08:51:00.098Z,1752.00
2019-03-10T08:52:00.016Z,1716.00
2019-03-10T08:52:59.932Z,1756.00
2019-03-10T08:53:59.851Z,1372.00
2019-03-10T08:54:59.779Z,1604.00
2019-03-10T08:55:59.685Z,1768.00
2019-03-10T08:56:59.598Z,1732.00
2019-03-10T08:57:59.516Z,1968.00
2019-03-10T08:58:59.438Z,1648.00
2019-03-10T08:59:59.345Z,1336.00
2019-03-10T09:00:59.269Z,1544.00
2019-03-10T09:01:59.185Z,1464.00
2019-03-10T09:02:59.101Z,1436.00
2019-03-10T09:03:59.021Z,1704.00
2019-03-10T09:04:58.933Z,1532.00
2019-03-10T09:05:58.852Z,1460.00
2019-03-10T09:06:58.772Z,1488.00
2019-03-10T09:07:58.683Z,1436.00
2019-03-10T09:08:58.597Z,1516.00
2019-03-10T09:09:58.519Z,1688.00
2019-03-10T09:10:58.437Z,1320.00
2019-03-10T09:11:58.355Z,1300.00
2019-03-10T09:12:58.268Z,1268.00
2019-03-10T09:13:58.182Z,1392.00
2019-03-10T09:14:58.105Z,1240.00
2019-03-10T09:15:58.017Z,1240.00
2019-03-10T09:16:57.932Z,1044.00
2019-03-10T09:17:57.850Z,1136.00
2019-03-10T09:18:57.768Z,1180.00
2019-03-10T09:19:57.682Z,1016.00
2019-03-10T09:20:57.608Z,892.00
2019-03-10T09:22:00.062Z,940.00
2019-03-10T09:22:57.446Z,968.00
2019-03-10T09:23:57.356Z,1108.00
2019-03-10T09:24:57.274Z,1184.00
2019-03-10T09:25:57.181Z,1380.00
2019-03-10T09:26:57.101Z,1224.00
2019-03-10T09:27:57.018Z,1480.00
2019-03-10T09:28:56.942Z,1768.00
2019-03-10T09:29:56.852Z,1888.00
2019-03-10T09:30:56.771Z,1948.00
2019-03-10T09:31:56.690Z,1740.00
2019-03-10T09:32:56.601Z,1748.00
2019-03-10T09:33:56.523Z,2004.00
2019-03-10T09:34:56.445Z,2176.00
2019-03-10T09:35:56.369Z,2308.00
2019-03-10T09:36:56.280Z,2140.00
2019-03-10T09:37:56.203Z,1916.00
2019-03-10T09:38:56.108Z,2336.00
2019-03-10T09:39:56.024Z,2500.00
2019-03-10T09:40:55.943Z,2260.00
2019-03-10T09:41:55.858Z,2204.00
2019-03-10T09:42:55.778Z,2092.00
2019-03-10T09:43:55.692Z,2144.00
2019-03-10T09:44:55.612Z,2248.00
2019-03-10T09:45:55.528Z,2460.00
2019-03-10T09:46:55.446Z,2880.00
2019-03-10T09:47:55.357Z,3072.00
2019-03-10T09:48:55.279Z,2948.00
2019-03-10T09:49:55.189Z,2864.00
2019-03-10T09:50:55.113Z,2688.00
2019-03-10T09:51:55.033Z,2492.00
2019-03-10T09:52:54.949Z,2268.00
2019-03-10T09:53:54.868Z,2068.00
2019-03-10T09:54:54.783Z,2112.00
2019-03-10T09:55:54.702Z,1956.00
2019-03-10T09:56:54.621Z,1816.00
2019-03-10T09:57:54.533Z,2116.00
2019-03-10T09:58:54.450Z,2572.00
2019-03-10T09:59:54.375Z,2724.00
2019-03-10T10:00:54.288Z,2536.00
2019-03-10T10:01:54.206Z,2096.00
2019-03-10T10:02:54.129Z,2132.00
2019-03-10T10:03:54.039Z,1884.00
2019-03-10T10:04:53.962Z,1804.00
2019-03-10T10:05:53.873Z,1960.00
2019-03-10T10:06:53.790Z,2012.00
2019-03-10T10:07:53.707Z,2504.00
2019-03-10T10:08:53.625Z,2636.00
2019-03-10T10:09:53.542Z,2764.00
2019-03-10T10:10:53.461Z,2556.00
2019-03-10T10:11:53.375Z,2448.00
2019-03-10T10:12:53.295Z,2472.00
2019-03-10T10:13:53.210Z,3020.00
2019-03-10T10:14:53.128Z,3636.00
2019-03-10T10:15:53.047Z,3780.00
2019-03-10T10:16:52.962Z,3612.00
2019-03-10T10:17:52.881Z,3140.00
2019-03-10T10:18:52.803Z,3688.00
2019-03-10T10:19:52.718Z,4488.00
2019-03-10T10:20:52.630Z,4968.00
2019-03-10T10:21:52.548Z,4856.00
2019-03-10T10:22:52.468Z,5120.00
2019-03-10T10:23:52.387Z,5276.00
2019-03-10T10:24:52.301Z,5224.00
2019-03-10T10:25:52.225Z,5104.00
2019-03-10T10:26:52.141Z,5144.00
2019-03-10T10:27:52.054Z,4864.00
2019-03-10T10:28:51.974Z,4316.00
2019-03-10T10:29:51.892Z,4804.00
2019-03-10T10:30:51.810Z,6360.00
2019-03-10T10:31:51.729Z,6600.00
2019-03-10T10:32:53.562Z,6484.00
2019-03-10T10:33:51.563Z,6392.00
2019-03-10T10:34:51.492Z,6260.00
2019-03-10T10:35:51.393Z,5864.00
2019-03-10T10:36:51.315Z,6072.00
2019-03-10T10:37:51.236Z,6200.00
2019-03-10T10:38:51.145Z,6348.00
2019-03-10T10:39:51.089Z,5912.00
2019-03-10T10:40:50.991Z,6188.00
2019-03-10T10:41:50.906Z,5644.00
2019-03-10T10:42:50.823Z,4904.00
2019-03-10T10:43:50.744Z,4284.00
2019-03-10T10:44:50.660Z,4752.00
2019-03-10T10:45:50.581Z,4336.00
2019-03-10T10:46:50.494Z,6484.00
2019-03-10T10:47:50.415Z,6592.00
2019-03-10T10:48:50.349Z,6336.00
2019-03-10T10:49:50.251Z,6228.00
2019-03-10T10:50:50.173Z,6232.00
2019-03-10T10:51:50.137Z,6968.00
2019-03-10T10:52:50.020Z,7808.00
2019-03-10T10:53:49.939Z,8192.00
2019-03-10T10:54:49.845Z,9604.00
2019-03-10T10:55:49.758Z,10688.00
2019-03-10T10:56:49.681Z,11336.00
2019-03-10T10:57:49.601Z,11308.00
2019-03-10T10:58:49.520Z,14484.00
2019-03-10T10:59:49.438Z,13188.00
2019-03-10T11:00:49.357Z,14820.00
2019-03-10T11:01:49.276Z,15100.00
2019-03-10T11:02:49.192Z,14040.00
2019-03-10T11:03:49.116Z,8564.00
2019-03-10T11:04:49.032Z,10676.00
2019-03-10T11:05:48.949Z,9140.00
2019-03-10T11:06:48.869Z,10152.00
2019-03-10T11:07:48.792Z,9064.00
2019-03-10T11:08:48.714Z,9840.00
2019-03-10T11:09:48.634Z,9796.00
2019-03-10T11:10:48.552Z,7456.00
2019-03-10T11:11:48.472Z,6952.00
2019-03-10T11:12:48.392Z,5856.00
2019-03-10T11:13:48.313Z,5552.00
2019-03-10T11:14:48.278Z,4872.00
2019-03-10T11:15:48.162Z,5116.00
2019-03-10T11:16:48.069Z,4908.00
2019-03-10T11:17:47.989Z,5172.00
2019-03-10T11:18:47.918Z,5324.00
2019-03-10T11:19:47.830Z,5204.00
2019-03-10T11:20:47.754Z,5180.00
2019-03-10T11:21:47.668Z,5080.00
2019-03-10T11:22:47.587Z,4964.00
2019-03-10T11:23:47.508Z,5356.00
2019-03-10T11:24:47.429Z,4668.00
2019-03-10T11:25:47.346Z,4016.00
2019-03-10T11:26:47.264Z,4116.00
2019-03-10T11:27:47.188Z,4028.00
2019-03-10T11:28:47.107Z,3316.00
2019-03-10T11:29:47.020Z,3280.00
2019-03-10T11:30:46.945Z,3544.00
2019-03-10T11:31:46.867Z,5300.00
2019-03-10T11:32:46.783Z,5908.00
2019-03-10T11:33:46.701Z,6888.00
2019-03-10T11:34:46.622Z,6004.00
2019-03-10T11:35:46.540Z,7572.00
2019-03-10T11:36:46.490Z,6152.00
2019-03-10T11:37:46.376Z,5076.00
2019-03-10T11:38:46.291Z,5132.00
2019-03-10T11:39:46.218Z,4228.00
2019-03-10T11:40:46.136Z,3548.00
2019-03-10T11:41:47.917Z,4376.00
2019-03-10T11:42:45.978Z,3812.00
2019-03-10T11:43:45.894Z,5856.00
2019-03-10T11:44:45.813Z,5360.00
2019-03-10T11:45:45.731Z,5804.00
2019-03-10T11:46:45.646Z,4840.00
2019-03-10T11:47:45.570Z,8284.00
2019-03-10T11:48:45.493Z,6020.00
2019-03-10T11:49:45.407Z,4732.00
2019-03-10T11:50:45.325Z,5480.00
2019-03-10T11:51:45.249Z,3484.00
2019-03-10T11:52:45.163Z,4384.00
2019-03-10T11:53:45.085Z,3632.00
2019-03-10T11:54:45.001Z,3280.00
2019-03-10T11:55:44.920Z,3508.00
2019-03-10T11:56:44.840Z,6376.00
2019-03-10T11:57:44.755Z,8396.00
2019-03-10T11:58:44.703Z,18656.00
2019-03-10T11:59:44.599Z,29088.00
2019-03-10T12:00:44.522Z,42592.00
2019-03-10T12:01:44.443Z,45152.00
2019-03-10T12:02:44.356Z,16496.00
2019-03-10T12:03:44.277Z,83296.00
2019-03-10T12:04:44.199Z,10800.00
2019-03-10T12:05:44.119Z,38976.00
2019-03-10T12:06:44.043Z,28832.00
2019-03-10T12:07:43.959Z,38944.00
2019-03-10T12:08:43.888Z,54592.00
2019-03-10T12:09:43.804Z,32448.00
2019-03-10T12:10:43.725Z,17312.00
2019-03-10T12:11:43.654Z,36928.00
2019-03-10T12:12:43.575Z,111168.00
2019-03-10T12:13:43.487Z,51424.00
2019-03-10T12:14:43.418Z,46752.00
2019-03-10T12:15:43.372Z,99936.00
2019-03-10T12:16:43.265Z,37664.00
2019-03-10T12:17:43.194Z,10840.00
2019-03-10T12:18:43.122Z,62752.00
2019-03-10T12:19:43.047Z,91136.00
2019-03-10T12:20:42.970Z,92320.00
2019-03-10T12:21:42.899Z,7292.00
2019-03-10T12:22:42.843Z,86496.00
2019-03-10T12:23:42.760Z,64352.00
2019-03-10T12:24:42.688Z,48224.00
2019-03-10T12:25:42.614Z,55424.00
2019-03-10T12:26:42.543Z,96128.00
2019-03-10T12:27:42.479Z,87392.00
2019-03-10T12:28:42.407Z,5740.00
2019-03-10T12:29:42.354Z,84352.00
2019-03-10T12:30:42.272Z,54112.00
2019-03-10T12:31:42.201Z,14820.00
2019-03-10T12:32:42.135Z,93312.00
2019-03-10T12:33:42.068Z,15888.00
2019-03-10T12:34:41.994Z,12516.00
2019-03-10T12:35:41.966Z,11000.00
2019-03-10T12:36:42.005Z,38176.00
2019-03-10T12:37:41.801Z,14724.00
2019-03-10T12:38:41.748Z,10452.00
2019-03-10T12:39:41.690Z,8288.00